sensor_id;sensor_type;location;lat;lon;timestamp;temperature;humidity
44731;DHT22;30458;47.448;19.032;2023-05-23T00:07:21;18.90;99.90
44731;DHT22;30458;47.448;19.032;2023-05-23T00:17:24;18.90;99.90
44731;DHT22;30458;47.448;19.032;2023-05-23T00:27:25;18.80;99.90
44731;DHT22;30458;47.448;19.032;2023-05-23T00:37:26;18.70;99.90
44731;DHT22;30458;47.448;19.032;2023-05-23T00:47:30;18.60;99.90
44731;DHT22;30458;47.448;19.032;2023-05-23T00:57:31;18.20;99.90
44731;DHT22;30458;47.448;19.032;2023-05-23T01:07:41;18.00;99.90
44731;DHT22;30458;47.448;19.032;2023-05-23T01:18:07;18.00;99.90
44731;DHT22;30458;47.448;19.032;2023-05-23T01:28:15;18.10;99.90
44731;DHT22;30458;47.448;19.032;2023-05-23T01:38:17;18.00;99.90
44731;DHT22;30458;47.448;19.032;2023-05-23T01:48:19;18.10;99.90
44731;DHT22;30458;47.448;19.032;2023-05-23T01:58:23;18.20;99.90
44731;DHT22;30458;47.448;19.032;2023-05-23T02:08:24;18.30;99.90
44731;DHT22;30458;47.448;19.032;2023-05-23T02:18:25;18.30;99.90
44731;DHT22;30458;47.448;19.032;2023-05-23T02:28:28;18.20;99.90
44731;DHT22;30458;47.448;19.032;2023-05-23T02:38:29;17.80;99.90
44731;DHT22;30458;47.448;19.032;2023-05-23T02:48:31;17.60;99.90
44731;DHT22;30458;47.448;19.032;2023-05-23T02:58:32;17.50;99.90
44731;DHT22;30458;47.448;19.032;2023-05-23T03:08:37;17.60;99.90
44731;DHT22;30458;47.448;19.032;2023-05-23T03:18:38;17.50;99.90
44731;DHT22;30458;47.448;19.032;2023-05-23T03:28:41;17.40;99.90
44731;DHT22;30458;47.448;19.032;2023-05-23T03:38:42;17.50;99.90
44731;DHT22;30458;47.448;19.032;2023-05-23T03:48:45;17.70;99.90
44731;DHT22;30458;47.448;19.032;2023-05-23T03:58:46;18.10;99.90
44731;DHT22;30458;47.448;19.032;2023-05-23T04:08:51;18.30;99.90
44731;DHT22;30458;47.448;19.032;2023-05-23T04:18:54;18.30;99.90
44731;DHT22;30458;47.448;19.032;2023-05-23T04:28:55;18.60;99.90
44731;DHT22;30458;47.448;19.032;2023-05-23T04:38:56;18.90;99.90
44731;DHT22;30458;47.448;19.032;2023-05-23T04:49:03;19.50;99.90
44731;DHT22;30458;47.448;19.032;2023-05-23T04:59:04;20.10;99.90
44731;DHT22;30458;47.448;19.032;2023-05-23T05:09:09;20.60;99.90
44731;DHT22;30458;47.448;19.032;2023-05-23T05:19:10;21.70;99.90
44731;DHT22;30458;47.448;19.032;2023-05-23T05:29:11;22.80;99.90
44731;DHT22;30458;47.448;19.032;2023-05-23T05:39:13;23.50;99.90
44731;DHT22;30458;47.448;19.032;2023-05-23T05:49:14;24.20;98.80
44731;DHT22;30458;47.448;19.032;2023-05-23T05:59:18;25.40;97.00
44731;DHT22;30458;47.448;19.032;2023-05-23T06:09:19;26.40;94.90
44731;DHT22;30458;47.448;19.032;2023-05-23T06:19:22;27.20;93.30
44731;DHT22;30458;47.448;19.032;2023-05-23T06:29:25;27.00;91.40
44731;DHT22;30458;47.448;19.032;2023-05-23T06:39:30;27.10;91.10
44731;DHT22;30458;47.448;19.032;2023-05-23T06:49:31;27.90;90.70
44731;DHT22;30458;47.448;19.032;2023-05-23T06:59:34;29.20;86.80
44731;DHT22;30458;47.448;19.032;2023-05-23T07:09:37;28.30;88.40
44731;DHT22;30458;47.448;19.032;2023-05-23T07:19:47;27.80;89.90
44731;DHT22;30458;47.448;19.032;2023-05-23T07:29:48;27.60;90.40
44731;DHT22;30458;47.448;19.032;2023-05-23T07:39:50;28.30;89.80
44731;DHT22;30458;47.448;19.032;2023-05-23T07:49:53;28.10;90.30
44731;DHT22;30458;47.448;19.032;2023-05-23T07:59:55;28.40;90.00
44731;DHT22;30458;47.448;19.032;2023-05-23T08:09:55;28.50;87.50
44731;DHT22;30458;47.448;19.032;2023-05-23T08:19:57;27.80;89.70
44731;DHT22;30458;47.448;19.032;2023-05-23T08:30:06;27.60;89.10
44731;DHT22;30458;47.448;19.032;2023-05-23T08:40:13;27.70;89.70
44731;DHT22;30458;47.448;19.032;2023-05-23T08:50:20;27.30;90.60
44731;DHT22;30458;47.448;19.032;2023-05-23T09:00:23;27.50;90.80
44731;DHT22;30458;47.448;19.032;2023-05-23T09:10:26;27.10;90.30
44731;DHT22;30458;47.448;19.032;2023-05-23T09:20:30;26.60;90.70
44731;DHT22;30458;47.448;19.032;2023-05-23T09:30:37;26.60;91.80
44731;DHT22;30458;47.448;19.032;2023-05-23T09:40:44;26.40;91.40
44731;DHT22;30458;47.448;19.032;2023-05-23T09:50:45;26.30;92.10
44731;DHT22;30458;47.448;19.032;2023-05-23T10:00:49;26.30;92.30
44731;DHT22;30458;47.448;19.032;2023-05-23T10:21:03;26.50;91.10
44731;DHT22;30458;47.448;19.032;2023-05-23T10:31:06;26.80;91.10
44731;DHT22;30458;47.448;19.032;2023-05-23T10:41:37;26.80;90.00
44731;DHT22;30458;47.448;19.032;2023-05-23T10:51:41;26.80;91.50
44731;DHT22;30458;47.448;19.032;2023-05-23T11:01:46;26.60;91.20
44731;DHT22;30458;47.448;19.032;2023-05-23T11:12:06;26.90;91.40
44731;DHT22;30458;47.448;19.032;2023-05-23T11:22:12;26.90;89.80
44731;DHT22;30458;47.448;19.032;2023-05-23T11:32:13;27.00;88.70
44731;DHT22;30458;47.448;19.032;2023-05-23T11:42:16;27.00;90.20
44731;DHT22;30458;47.448;19.032;2023-05-23T11:52:17;27.10;90.30
44731;DHT22;30458;47.448;19.032;2023-05-23T12:02:23;26.90;90.40
44731;DHT22;30458;47.448;19.032;2023-05-23T12:12:27;26.80;90.10
44731;DHT22;30458;47.448;19.032;2023-05-23T12:22:30;26.90;90.20
44731;DHT22;30458;47.448;19.032;2023-05-23T12:32:32;27.10;89.70
44731;DHT22;30458;47.448;19.032;2023-05-23T12:42:52;27.20;87.60
44731;DHT22;30458;47.448;19.032;2023-05-23T12:52:53;27.30;86.70
44731;DHT22;30458;47.448;19.032;2023-05-23T13:02:56;27.30;85.90
44731;DHT22;30458;47.448;19.032;2023-05-23T13:12:57;27.30;85.90
44731;DHT22;30458;47.448;19.032;2023-05-23T13:22:58;27.40;85.50
44731;DHT22;30458;47.448;19.032;2023-05-23T13:33:00;27.30;86.00
44731;DHT22;30458;47.448;19.032;2023-05-23T13:43:04;27.30;84.10
44731;DHT22;30458;47.448;19.032;2023-05-23T13:53:04;27.20;84.30
44731;DHT22;30458;47.448;19.032;2023-05-23T14:03:13;27.30;85.10
44731;DHT22;30458;47.448;19.032;2023-05-23T14:13:17;27.30;85.60
44731;DHT22;30458;47.448;19.032;2023-05-23T14:23:18;27.40;84.70
44731;DHT22;30458;47.448;19.032;2023-05-23T14:33:21;27.40;84.80
44731;DHT22;30458;47.448;19.032;2023-05-23T14:43:27;27.40;84.30
44731;DHT22;30458;47.448;19.032;2023-05-23T14:53:34;27.50;83.70
44731;DHT22;30458;47.448;19.032;2023-05-23T15:03:37;27.50;83.60
44731;DHT22;30458;47.448;19.032;2023-05-23T15:13:40;27.50;84.00
44731;DHT22;30458;47.448;19.032;2023-05-23T15:23:41;27.50;83.30
44731;DHT22;30458;47.448;19.032;2023-05-23T15:33:44;27.60;83.20
44731;DHT22;30458;47.448;19.032;2023-05-23T15:43:45;27.50;83.00
44731;DHT22;30458;47.448;19.032;2023-05-23T15:53:46;27.50;82.00
44731;DHT22;30458;47.448;19.032;2023-05-23T16:03:47;27.30;82.40
44731;DHT22;30458;47.448;19.032;2023-05-23T16:13:48;27.10;81.60
44731;DHT22;30458;47.448;19.032;2023-05-23T16:23:51;27.00;82.70
44731;DHT22;30458;47.448;19.032;2023-05-23T16:33:52;26.80;83.20
44731;DHT22;30458;47.448;19.032;2023-05-23T16:43:53;26.80;83.00
44731;DHT22;30458;47.448;19.032;2023-05-23T16:53:54;26.60;82.70
44731;DHT22;30458;47.448;19.032;2023-05-23T17:03:54;26.50;83.50
44731;DHT22;30458;47.448;19.032;2023-05-23T17:13:58;26.30;84.00
44731;DHT22;30458;47.448;19.032;2023-05-23T17:23:59;26.20;84.60
44731;DHT22;30458;47.448;19.032;2023-05-23T17:33:59;26.10;85.10
44731;DHT22;30458;47.448;19.032;2023-05-23T17:44:03;25.00;89.10
44731;DHT22;30458;47.448;19.032;2023-05-23T17:54:03;24.00;91.60
44731;DHT22;30458;47.448;19.032;2023-05-23T18:04:09;23.40;92.60
44731;DHT22;30458;47.448;19.032;2023-05-23T18:14:09;22.90;93.20
44731;DHT22;30458;47.448;19.032;2023-05-23T18:24:11;22.90;93.20
44731;DHT22;30458;47.448;19.032;2023-05-23T18:34:12;22.70;93.40
44731;DHT22;30458;47.448;19.032;2023-05-23T18:44:15;22.70;93.30
44731;DHT22;30458;47.448;19.032;2023-05-23T18:54:17;22.70;94.40
44731;DHT22;30458;47.448;19.032;2023-05-23T19:04:18;22.30;95.30
44731;DHT22;30458;47.448;19.032;2023-05-23T19:14:19;21.90;95.90
44731;DHT22;30458;47.448;19.032;2023-05-23T19:24:22;21.60;95.90
44731;DHT22;30458;47.448;19.032;2023-05-23T19:34:23;21.50;96.50
44731;DHT22;30458;47.448;19.032;2023-05-23T19:44:26;21.60;96.00
44731;DHT22;30458;47.448;19.032;2023-05-23T19:54:30;21.60;96.70
44731;DHT22;30458;47.448;19.032;2023-05-23T20:04:31;21.60;97.00
44731;DHT22;30458;47.448;19.032;2023-05-23T20:14:34;21.30;98.20
44731;DHT22;30458;47.448;19.032;2023-05-23T20:24:35;21.20;98.50
44731;DHT22;30458;47.448;19.032;2023-05-23T20:34:36;21.10;99.30
44731;DHT22;30458;47.448;19.032;2023-05-23T20:44:37;21.00;99.90
44731;DHT22;30458;47.448;19.032;2023-05-23T20:54:38;20.90;99.90
44731;DHT22;30458;47.448;19.032;2023-05-23T21:04:41;20.70;99.90
44731;DHT22;30458;47.448;19.032;2023-05-23T21:14:42;21.00;99.90
44731;DHT22;30458;47.448;19.032;2023-05-23T21:24:46;20.80;99.90
44731;DHT22;30458;47.448;19.032;2023-05-23T21:34:47;20.90;99.90
44731;DHT22;30458;47.448;19.032;2023-05-23T21:44:50;20.60;99.90
44731;DHT22;30458;47.448;19.032;2023-05-23T21:54:51;20.60;99.90
44731;DHT22;30458;47.448;19.032;2023-05-23T22:04:57;20.70;99.90
44731;DHT22;30458;47.448;19.032;2023-05-23T22:15:00;20.80;99.90
44731;DHT22;30458;47.448;19.032;2023-05-23T22:25:00;20.70;99.90
44731;DHT22;30458;47.448;19.032;2023-05-23T22:35:01;20.40;99.90
44731;DHT22;30458;47.448;19.032;2023-05-23T22:45:05;20.50;99.90
44731;DHT22;30458;47.448;19.032;2023-05-23T22:55:07;20.50;99.90
44731;DHT22;30458;47.448;19.032;2023-05-23T23:05:10;20.50;99.90
44731;DHT22;30458;47.448;19.032;2023-05-23T23:15:11;20.50;99.90
44731;DHT22;30458;47.448;19.032;2023-05-23T23:25:12;20.30;99.90
44731;DHT22;30458;47.448;19.032;2023-05-23T23:35:16;19.80;99.90
44731;DHT22;30458;47.448;19.032;2023-05-23T23:45:19;19.30;99.90
44731;DHT22;30458;47.448;19.032;2023-05-23T23:55:19;19.40;99.90
